logo dgac
Miércoles 28 de Febrero del 2024
Buscar por aerodromo o helipuerto
Ingrese nombre de aeródromo, localidad o designador OACI:

Aeródromo: Mataveri (PUB) (SCIP)

Ubicación: Isla de Pascua, V Región, Chile (27º 09' 53'' S, 109º 25' 19'' W) Ver ubicación en el mapa

Pistas

Luces
Orientación Dimensión Pendiente Superficie Resistencia APCH THR RWY PAPI
10/28 3300 x 45 0,90 ASPH 65 F/C/W/T
Horas de operación O/R
Elevación 69 m / 227 ft
Otra Información Adm : D.G.A.C
Uso : PUB
Ubicado a 500 m S Hanga Roa

TEL/FAX(56)322100237 / Fax: 322100245

Otra información ver AIP-Chile Volumen I AD 2.6-1 SCIP
CCCM/FCCV Descargar CCCM/FCCV
andera de Chile
Mapa de  Mataveri (PUB) (SCIP)

Último METAR

METAR SCIP 280000Z 12010KT 080V140 9999 SCT030 SCT050 25/18 Q1019 NOSIG

Último TAF

TAF SCIP 272202Z 2800/2900 06006KT 9999 SCT030 TN20/2810Z TX26/2820Z TEMPO 2814/2900 5000 -SHRA BKN015 BKN030

Últimas fotos cámaras

Imagen aerodromo  Mataveri (PUB) (SCIP) S-Oeste tomada el 28-02-2024 12:18:32 Imagen aerodromo  Mataveri (PUB) (SCIP) Este tomada el 28-02-2024 12:28:17 Imagen aerodromo  Mataveri (PUB) (SCIP) Oeste tomada el 28-02-2024 12:28:19

Último NOTAM

A0127/24 NOTAMR A3396/23 Q)SCIZ/QFMLT/IV/BO/A/000/999/2710S10925W005 A)SCIP B)2401121636 C)2403112359 E)MET SER WITH RADIOSONDE BALLOON ASCENT U/S